Time;durP1;ratioP1;P1;durP2;ratioP2;P2;SDS_P1;SDS_P2;PMS_P1;PMS_P2;Temp;Humidity;BMP_temperature;BMP_pressure;BME280_temperature;BME280_humidity;BME280_pressure;Samples;Min_cycle;Max_cycle;Signal;HPM_P1;HPM_P2
2022/11/18 06:00:43;;;;;;;16.17;15.27;;;;;;;13.40;73.84;100290.00;5019754;27;102148;-52
2022/11/18 06:03:15;;;;;;;20.25;19.08;;;;;;;13.43;73.83;100286.69;5000796;28;102084;-53
2022/11/18 06:05:44;;;;;;;20.70;19.48;;;;;;;13.43;73.85;100283.94;5016483;28;103866;-52
2022/11/18 06:08:12;;;;;;;20.98;19.77;;;;;;;13.41;73.94;100283.44;5034162;28;101904;-52
2022/11/18 06:10:42;;;;;;;15.77;14.90;;;;;;;13.42;73.90;100296.00;5038134;27;101286;-52
2022/11/18 06:13:15;;;;;;;20.35;19.15;;;;;;;13.41;73.94;100308.84;5040187;27;101643;-53
2022/11/18 06:15:44;;;;;;;21.83;20.55;;;;;;;13.42;73.97;100312.41;5037992;27;103065;-52
2022/11/18 06:18:22;;;;;;;20.73;19.52;;;;;;;13.41;73.98;100324.44;5032949;28;101664;-53
2022/11/18 06:20:54;;;;;;;23.23;21.95;;;;;;;13.42;73.86;100331.53;5029099;28;101201;-52
2022/11/18 06:24:01;;;;;;;23.15;21.80;;;;;;;13.43;73.94;100327.69;5025843;28;102268;-52
2022/11/18 06:26:31;;;;;;;20.42;19.23;;;;;;;13.42;73.94;100329.59;5032106;28;103089;-51
2022/11/18 06:28:58;;;;;;;21.80;20.50;;;;;;;13.42;73.93;100334.28;5025566;28;102118;-52
2022/11/18 06:31:29;;;;;;;22.75;21.35;;;;;;;13.43;73.85;100344.09;5026299;28;101243;-52
2022/11/18 06:33:56;;;;;;;24.40;22.95;;;;;;;13.43;73.94;100352.28;5028239;28;101751;-52
2022/11/18 06:36:22;;;;;;;22.73;21.42;;;;;;;13.43;73.93;100341.34;5024482;28;103044;-52
2022/11/18 06:38:49;;;;;;;22.70;21.40;;;;;;;13.43;73.64;100330.41;5028759;28;101411;-52
2022/11/18 06:41:15;;;;;;;23.50;22.08;;;;;;;13.42;74.06;100315.13;5027825;28;101850;-51
2022/11/18 06:43:43;;;;;;;21.58;20.33;;;;;;;13.44;73.88;100323.81;5028542;28;101426;-52
2022/11/18 06:49:13;;;;;;;23.13;21.83;;;;;;;13.44;73.77;100318.38;5026951;28;101620;-52
2022/11/18 06:51:43;;;;;;;23.48;22.10;;;;;;;13.43;73.82;100311.28;5026352;28;102614;-55
2022/11/18 06:54:10;;;;;;;22.63;21.35;;;;;;;13.43;73.85;100308.56;5026247;28;101685;-53
2022/11/18 06:56:36;;;;;;;25.60;24.20;;;;;;;13.43;73.78;100306.63;5026971;28;103066;-52
2022/11/18 06:59:04;;;;;;;24.17;22.70;;;;;;;13.43;73.74;100297.63;5026248;28;102336;-52
2022/11/18 07:01:34;;;;;;;24.98;23.58;;;;;;;13.42;73.93;100296.00;5028091;28;101237;-52
2022/11/18 07:04:02;;;;;;;23.52;22.23;;;;;;;13.43;73.82;100303.09;5026642;28;101949;-52
2022/11/18 07:06:30;;;;;;;23.60;22.30;;;;;;;13.44;74.02;100310.16;5023277;28;103080;-52
2022/11/18 07:08:59;;;;;;;24.88;23.42;;;;;;;13.43;73.90;100303.09;5027000;28;102075;-52
2022/11/18 07:11:26;;;;;;;24.80;23.40;;;;;;;13.44;73.95;100310.16;5016822;28;101974;-52
2022/11/18 07:13:53;;;;;;;23.25;21.92;;;;;;;13.44;73.95;100312.91;5014229;28;101617;-52
2022/11/18 07:16:22;;;;;;;25.50;24.10;;;;;;;13.45;73.66;100311.78;5009683;28;102986;-52
2022/11/18 07:18:50;;;;;;;23.80;22.40;;;;;;;13.45;73.72;100311.78;5011958;28;101674;-57
2022/11/18 07:21:19;;;;;;;23.17;21.88;;;;;;;13.45;73.64;100312.63;5011635;28;101701;-52
2022/11/18 07:23:47;;;;;;;26.23;24.70;;;;;;;13.45;73.70;100311.78;5013288;28;101993;-52
2022/11/18 07:26:15;;;;;;;25.38;23.98;;;;;;;13.45;73.76;100317.25;5019218;28;103292;-52
2022/11/18 07:28:41;;;;;;;25.75;24.33;;;;;;;13.42;73.93;100306.94;5010671;28;101808;-52
2022/11/18 07:31:10;;;;;;;23.80;22.45;;;;;;;13.44;73.90;100310.97;5012177;28;101913;-52
2022/11/18 07:33:40;;;;;;;26.42;24.98;;;;;;;13.43;73.81;100322.22;5011778;28;101626;-52
2022/11/18 07:36:09;;;;;;;26.83;25.30;;;;;;;13.45;73.83;100326.28;5012308;28;102992;-52
2022/11/18 07:38:38;;;;;;;27.52;26.02;;;;;;;13.45;73.70;100319.97;5012815;28;102307;-51
2022/11/18 07:41:06;;;;;;;24.20;22.80;;;;;;;13.44;73.90;100323.81;5010721;28;102894;-52
2022/11/18 07:43:34;;;;;;;24.92;23.58;;;;;;;13.44;73.90;100337.50;5012596;28;102131;-52
2022/11/18 07:46:11;;;;;;;26.05;24.60;;;;;;;13.43;73.84;100331.22;5013189;28;103055;-52
2022/11/18 07:48:38;;;;;;;26.15;24.67;;;;;;;13.45;73.90;100333.66;5011372;28;101675;-52
2022/11/18 07:51:05;;;;;;;27.20;25.70;;;;;;;13.44;73.97;100315.63;5012042;28;101688;-52
2022/11/18 07:53:34;;;;;;;24.05;22.75;;;;;;;13.46;73.83;100313.41;5013831;28;101614;-52
2022/11/18 07:56:05;;;;;;;27.38;25.88;;;;;;;13.44;73.94;100310.97;5010678;28;102941;-52
2022/11/18 07:58:31;;;;;;;24.85;23.45;;;;;;;13.44;73.73;100310.16;5011143;28;101933;-52
2022/11/18 08:00:58;;;;;;;25.67;24.27;;;;;;;13.43;73.96;100314.00;5011448;28;101792;-52
2022/11/18 08:03:25;;;;;;;27.00;25.58;;;;;;;13.43;73.97;100308.56;5012941;28;101791;-52
2022/11/18 08:05:52;;;;;;;26.75;25.27;;;;;;;13.42;73.92;100313.22;5001179;28;103046;-53
2022/11/18 08:08:19;;;;;;;28.10;26.58;;;;;;;13.42;73.93;100307.75;4981388;28;102191;-52
2022/11/18 08:10:48;;;;;;;28.75;27.17;;;;;;;13.43;73.85;100311.28;4979257;28;102261;-52
2022/11/18 08:13:16;;;;;;;28.60;27.00;;;;;;;13.43;73.91;100327.69;4982262;28;102213;-52
2022/11/18 08:15:46;;;;;;;27.48;26.00;;;;;;;13.44;73.87;100342.97;4980552;28;104085;-52
2022/11/18 08:18:16;;;;;;;28.95;27.40;;;;;;;13.43;73.65;100352.28;4982568;28;102669;-52
2022/11/18 08:20:44;;;;;;;27.57;26.07;;;;;;;13.43;73.76;100352.28;4984302;28;102369;-52
2022/11/18 08:23:13;;;;;;;30.52;28.88;;;;;;;13.45;73.96;100347.31;4982240;28;102244;-52
2022/11/18 08:25:41;;;;;;;28.38;26.85;;;;;;;13.43;73.77;100349.56;4980313;28;103896;-52
2022/11/18 08:28:08;;;;;;;31.25;29.55;;;;;;;13.44;73.88;100342.97;4984671;28;102797;-52
2022/11/18 08:30:36;;;;;;;27.10;25.60;;;;;;;13.43;73.65;100346.81;4982914;28;102575;-52
2022/11/18 08:33:04;;;;;;;29.52;27.98;;;;;;;13.43;73.89;100355.00;4980848;28;102984;-52
2022/11/18 08:35:32;;;;;;;25.23;23.88;;;;;;;13.43;73.68;100360.47;4980291;28;103819;-52
2022/11/18 08:37:58;;;;;;;24.45;23.10;;;;;;;13.44;73.82;100349.25;4981115;28;102349;-52
2022/11/18 08:40:30;;;;;;;24.30;22.98;;;;;;;13.42;73.96;100346.00;4985166;28;102633;-52
2022/11/18 08:42:56;;;;;;;22.50;21.25;;;;;;;13.41;73.93;100332.63;4989789;28;102746;-53
2022/11/18 08:45:25;;;;;;;21.80;20.60;;;;;;;13.42;73.99;100334.28;4995917;28;103858;-52
2022/11/18 08:47:53;;;;;;;22.98;21.67;;;;;;;13.42;73.89;100334.28;4996660;28;102254;-52
2022/11/18 08:50:22;;;;;;;23.25;21.90;;;;;;;13.41;73.84;100322.50;4995785;28;102568;-52
2022/11/18 08:52:49;;;;;;;24.20;22.90;;;;;;;13.41;73.95;100327.16;4997159;28;102209;-52
2022/11/18 08:55:15;;;;;;;24.30;22.95;;;;;;;13.42;73.88;100334.28;4986364;28;103834;-52
2022/11/18 08:57:41;;;;;;;25.77;24.38;;;;;;;13.39;73.87;100346.59;4977804;28;101879;-52
2022/11/18 09:00:09;;;;;;;23.27;22.02;;;;;;;13.41;73.90;100349.03;4987827;28;102114;-52
2022/11/18 09:02:36;;;;;;;24.90;23.53;;;;;;;13.39;74.22;100346.59;4977708;28;102582;-52
2022/11/18 09:05:04;;;;;;;24.70;23.38;;;;;;;13.41;73.82;100338.09;4975539;28;103941;-52
2022/11/18 09:07:31;;;;;;;;;;;;;;;13.42;73.95;100356.13;4980056;28;102245;-52
2022/11/18 09:10:01;;;;;;;19.02;17.98;;;;;;;13.41;73.85;100343.56;4992657;28;102302;-52
2022/11/18 09:12:27;;;;;;;;;;;;;;;13.41;73.93;100349.03;4990675;28;102349;-52
2022/11/18 09:14:53;;;;;;;18.02;17.00;;;;;;;13.41;73.95;100354.50;4985730;28;103909;-53
2022/11/18 09:17:20;;;;;;;21.73;20.52;;;;;;;13.39;74.00;100334.88;4991759;28;102651;-52
2022/11/18 09:19:46;;;;;;;22.88;21.58;;;;;;;13.42;74.03;100346.00;4995509;28;102300;-52
2022/11/18 09:22:14;;;;;;;23.17;21.90;;;;;;;13.42;73.83;100328.81;4996898;28;102237;-52
2022/11/18 09:24:40;;;;;;;24.48;23.13;;;;;;;13.40;73.76;100320.06;4994440;28;103962;-52
2022/11/18 09:27:07;;;;;;;22.50;21.25;;;;;;;13.41;73.88;100313.50;4996385;28;101932;-52
2022/11/18 09:29:34;;;;;;;23.23;22.00;;;;;;;13.41;73.88;100316.22;4995179;28;102398;-52
2022/11/18 09:32:01;;;;;;;23.73;22.42;;;;;;;13.40;73.84;100314.63;4997058;28;102826;-52
2022/11/18 09:34:28;;;;;;;21.15;19.98;;;;;;;13.41;73.81;100313.50;4978395;28;103897;-52
2022/11/18 09:36:55;;;;;;;24.30;23.02;;;;;;;13.38;73.75;100312.19;4995827;28;102641;-52
2022/11/18 09:39:24;;;;;;;22.98;21.77;;;;;;;13.38;73.87;100306.72;4990652;28;102458;-52
2022/11/18 09:42:00;;;;;;;24.07;22.77;;;;;;;13.38;73.82;100323.13;4996561;28;102506;-52
2022/11/18 09:44:47;;;;;;;22.45;21.20;;;;;;;13.37;73.92;100317.94;4991059;28;103934;-52
2022/11/18 09:47:23;;;;;;;21.92;20.70;;;;;;;13.36;74.02;100308.13;4995166;28;102842;-52
2022/11/18 09:49:50;;;;;;;24.58;23.23;;;;;;;13.37;73.86;100301.53;4985182;28;102045;-52
2022/11/18 09:52:20;;;;;;;24.17;22.83;;;;;;;13.36;73.81;100297.19;4993153;28;102238;-52
2022/11/18 09:54:49;;;;;;;24.35;22.90;;;;;;;13.36;73.72;100297.19;4992684;28;104041;-52
2022/11/18 09:57:18;;;;;;;25.80;24.33;;;;;;;13.36;73.86;100303.47;4990335;28;102422;-52
2022/11/18 09:59:45;;;;;;;25.92;24.48;;;;;;;13.36;73.86;100302.66;4985588;28;102454;-52
2022/11/18 10:02:39;;;;;;;24.38;22.98;;;;;;;13.35;73.66;100303.78;4977140;28;102303;-52
2022/11/18 10:05:14;;;;;;;23.38;22.08;;;;;;;13.35;73.77;100311.97;4988892;28;107972;-52
2022/11/18 10:07:47;;;;;;;26.13;24.65;;;;;;;13.36;73.53;100316.31;4987715;28;102710;-52
2022/11/18 10:10:21;;;;;;;27.40;25.80;;;;;;;13.36;73.53;100306.19;4993276;28;102189;-52
2022/11/18 10:12:55;;;;;;;22.30;21.05;;;;;;;13.37;73.38;100302.34;4976796;28;102124;-52
2022/11/18 10:15:28;;;;;;;25.25;23.83;;;;;;;13.35;73.69;100298.31;4975194;28;104054;-53
2022/11/18 10:18:02;;;;;;;24.15;22.65;;;;;;;13.36;73.59;100295.25;4975578;28;102044;-52
2022/11/18 10:20:45;;;;;;;24.25;22.77;;;;;;;13.36;73.57;100289.81;4974845;28;102176;-52
2022/11/18 14:55:35;;;;;;;25.17;23.65;;;;;;;13.04;73.05;100186.78;4995891;28;102600;-52
2022/11/18 14:58:01;;;;;;;21.00;19.70;;;;;;;13.03;73.01;100187.91;4985808;28;102562;-52
2022/11/18 15:00:28;;;;;;;22.92;21.52;;;;;;;13.05;73.03;100177.47;4986751;28;103930;-52
2022/11/18 15:02:54;;;;;;;22.48;21.13;;;;;;;13.06;73.20;100176.38;4989772;28;102206;-53
2022/11/18 15:05:21;;;;;;;23.13;21.73;;;;;;;13.08;73.18;100181.53;4973239;28;102522;-53
2022/11/18 15:07:48;;;;;;;26.45;24.75;;;;;;;13.10;72.81;100180.13;4975763;28;102310;-53
2022/11/18 15:10:16;;;;;;;26.50;24.92;;;;;;;13.10;73.07;100180.13;4972312;28;104152;-52
2022/11/18 15:12:44;;;;;;;25.65;24.08;;;;;;;13.11;73.01;100192.66;4974131;28;101951;-52
2022/11/18 15:15:11;;;;;;;25.02;23.50;;;;;;;13.12;72.79;100188.81;4977256;28;102283;-52
2022/11/18 15:17:37;;;;;;;26.60;25.02;;;;;;;13.11;73.00;100191.84;4986557;28;102400;-52
2022/11/18 15:20:05;;;;;;;24.52;23.02;;;;;;;13.12;72.99;100188.00;4963707;28;103965;-52
2022/11/18 15:22:33;;;;;;;26.02;24.42;;;;;;;13.11;73.04;100194.59;4972788;28;102794;-52
2022/11/18 15:25:00;;;;;;;26.65;24.95;;;;;;;13.12;72.97;100188.00;4953014;28;102461;-52
2022/11/18 15:27:27;;;;;;;27.02;25.23;;;;;;;13.12;73.10;100186.06;4954553;28;102185;-52
2022/11/18 15:29:54;;;;;;;27.60;25.90;;;;;;;13.12;73.18;100186.06;4951731;28;104015;-52
2022/11/18 15:32:21;;;;;;;28.48;26.75;;;;;;;13.12;73.16;100193.47;4953272;28;101988;-52
2022/11/18 15:34:47;;;;;;;27.35;25.70;;;;;;;13.14;73.01;100192.06;4952761;28;102075;-52
2022/11/18 15:37:14;;;;;;;30.20;28.15;;;;;;;13.14;73.10;100192.06;4962185;28;102718;-52
2022/11/18 15:39:43;;;;;;;28.00;26.17;;;;;;;13.15;72.95;100187.41;4959976;28;104108;-52
2022/11/18 15:42:10;;;;;;;28.25;26.45;;;;;;;13.15;73.10;100195.59;4958853;28;102065;-52
2022/11/18 15:44:36;;;;;;;28.95;27.10;;;;;;;13.16;73.06;100192.59;4955227;28;102421;-52
2022/11/18 15:47:04;;;;;;;30.35;28.50;;;;;;;13.17;73.10;100183.28;4954157;28;102169;-52
2022/11/18 15:49:31;;;;;;;28.80;27.05;;;;;;;13.20;72.67;100196.34;4966584;28;103979;-52
2022/11/18 15:52:00;;;;;;;31.52;29.60;;;;;;;13.19;72.89;100186.50;4969165;28;102819;-52
2022/11/18 15:54:27;;;;;;;32.33;30.05;;;;;;;13.21;72.96;100192.47;4977658;28;102147;-52
2022/11/18 15:56:53;;;;;;;31.98;29.98;;;;;;;13.21;73.27;100187.00;4999691;28;102265;-52
2022/11/18 15:59:20;;;;;;;31.65;29.55;;;;;;;13.22;73.02;100183.16;5001227;28;104136;-52
2022/11/18 16:01:50;;;;;;;33.47;31.45;;;;;;;13.21;73.01;100181.56;5005627;28;102125;-53
2022/11/18 16:04:18;;;;;;;33.72;31.70;;;;;;;13.22;73.10;100177.69;5003867;28;102613;-52
2022/11/18 16:06:47;;;;;;;31.75;29.88;;;;;;;13.24;73.35;100176.63;4998479;28;102285;-52
2022/11/18 16:09:17;;;;;;;33.55;31.55;;;;;;;13.24;73.12;100168.44;5003453;28;104141;-52
2022/11/18 16:14:28;;;;;;;32.95;30.90;;;;;;;13.25;73.27;100157.19;5017357;28;102209;-52
2022/11/18 16:16:57;;;;;;;34.08;32.00;;;;;;;13.23;73.20;100156.66;5018699;28;102409;-52
2022/11/18 16:19:32;;;;;;;32.97;31.10;;;;;;;13.24;73.30;100146.59;5014522;28;104100;-52
2022/11/18 16:22:01;;;;;;;33.97;32.00;;;;;;;13.24;73.32;100146.59;4998570;28;101972;-52
2022/11/18 16:24:29;;;;;;;35.00;32.90;;;;;;;13.23;73.25;100142.97;5001980;28;102146;-52
2022/11/18 16:26:56;;;;;;;32.25;30.30;;;;;;;13.21;73.53;100137.84;5000292;28;102172;-52
2022/11/18 16:29:22;;;;;;;34.95;32.90;;;;;;;13.21;73.37;100135.09;5006584;28;103917;-52
2022/11/18 16:31:50;;;;;;;32.58;30.65;;;;;;;13.20;73.37;100136.22;5000779;28;101979;-52
2022/11/18 16:34:21;;;;;;;30.83;28.88;;;;;;;13.21;73.45;100137.84;5012929;28;101874;-52
2022/11/18 16:36:51;;;;;;;33.67;31.73;;;;;;;13.21;73.58;100135.09;5009590;28;102677;-52
2022/11/18 16:39:24;;;;;;;33.05;31.15;;;;;;;13.21;73.45;100131.56;5004514;28;104065;-52
2022/11/18 16:41:52;;;;;;;29.75;27.90;;;;;;;13.24;73.49;100124.72;5009952;28;101899;-52
2022/11/18 16:44:19;;;;;;;34.50;32.45;;;;;;;13.24;73.29;100122.00;5017816;28;102440;-53
2022/11/18 16:46:47;;;;;;;33.25;31.30;;;;;;;13.24;73.39;100116.53;5011830;28;102472;-53
2022/11/18 16:49:17;;;;;;;28.70;26.95;;;;;;;13.26;73.28;100111.53;5010897;28;103891;-52
2022/11/18 16:51:50;;;;;;;29.08;27.30;;;;;;;13.25;73.42;100121.66;5006908;28;102367;-52
2022/11/18 16:54:24;;;;;;;30.13;28.30;;;;;;;13.24;73.36;100120.06;5009147;28;102558;-52
2022/11/18 16:56:55;;;;;;;29.08;27.40;;;;;;;13.27;73.46;100121.34;5018884;28;102269;-52
2022/11/18 16:59:23;;;;;;;28.70;26.98;;;;;;;13.26;73.54;100117.00;5016681;28;104612;-52
2022/11/18 17:01:51;;;;;;;30.00;28.10;;;;;;;13.25;73.54;100118.94;4999058;28;101995;-52
2022/11/18 17:04:23;;;;;;;28.35;26.33;;;;;;;13.26;73.73;100100.63;5004965;28;102611;-52
2022/11/18 17:06:55;;;;;;;29.42;27.50;;;;;;;13.25;73.43;100099.00;5000538;28;102261;-52
2022/11/18 17:09:27;;;;;;;25.98;24.33;;;;;;;13.25;73.72;100088.06;4997637;28;104135;-52
2022/11/18 17:11:57;;;;;;;26.17;24.50;;;;;;;13.25;73.74;100088.06;5017583;28;102288;-52
2022/11/18 17:14:30;;;;;;;28.17;26.38;;;;;;;13.25;73.53;100088.88;5016891;28;102131;-52
2022/11/18 17:17:01;;;;;;;25.55;24.00;;;;;;;13.26;73.39;100097.88;5010010;28;102577;-52
2022/11/18 17:19:27;;;;;;;27.65;25.88;;;;;;;13.26;73.68;100084.22;5000416;28;104232;-53
2022/11/18 17:21:55;;;;;;;27.65;25.95;;;;;;;13.26;73.76;100081.50;5016226;28;102447;-52
2022/11/18 17:24:22;;;;;;;29.15;27.35;;;;;;;13.26;73.90;100081.50;5017943;28;102051;-52
2022/11/18 17:26:50;;;;;;;26.50;24.90;;;;;;;13.27;73.32;100074.91;5002106;28;102544;-52
2022/11/18 17:29:23;;;;;;;30.00;28.10;;;;;;;13.25;73.72;100061.56;5002233;28;104040;-52
2022/11/18 17:31:50;;;;;;;25.80;24.02;;;;;;;13.26;73.92;100062.38;5011942;28;102005;-52
2022/11/18 17:34:19;;;;;;;26.10;24.40;;;;;;;13.26;73.80;100062.38;5004851;28;103803;-52
2022/11/18 17:36:48;;;;;;;29.13;27.25;;;;;;;13.24;73.84;100070.06;5003093;28;103452;-52
2022/11/18 17:39:17;;;;;;;26.75;25.05;;;;;;;13.25;73.90;100063.47;5006886;28;103855;-52
2022/11/18 17:44:31;;;;;;;22.50;20.85;;;;;;;13.24;73.88;100061.88;5008043;28;102676;-52
2022/11/18 17:47:03;;;;;;;25.60;23.95;;;;;;;13.23;73.90;100066.47;5015097;28;102240;-52
2022/11/18 17:49:30;;;;;;;26.65;25.02;;;;;;;13.22;74.14;100057.47;5007630;28;107825;-53
2022/11/18 17:51:58;;;;;;;28.40;26.70;;;;;;;13.22;73.91;100043.81;5008451;28;102376;-53
2022/11/18 17:54:26;;;;;;;25.27;23.65;;;;;;;13.22;74.03;100043.81;5010431;28;102448;-52
2022/11/18 17:56:52;;;;;;;26.73;25.13;;;;;;;13.25;73.87;100036.97;5016704;28;102526;-52
2022/11/18 17:59:19;;;;;;;25.88;24.27;;;;;;;13.27;73.87;100036.66;5012860;28;104182;-52
2022/11/18 18:01:45;;;;;;;27.08;25.45;;;;;;;13.24;73.93;100038.09;5009649;28;102330;-52
2022/11/18 18:04:18;;;;;;;24.23;22.85;;;;;;;13.24;74.06;100031.81;5002078;28;102338;-52
2022/11/18 18:06:51;;;;;;;25.85;24.20;;;;;;;13.27;74.18;100031.19;5006412;28;102069;-52
2022/11/18 18:09:18;;;;;;;25.92;24.38;;;;;;;13.25;73.97;100025.22;5013513;28;104107;-52
2022/11/18 18:11:46;;;;;;;25.60;24.08;;;;;;;13.26;73.89;100029.56;5002789;28;102222;-52
2022/11/18 18:14:13;;;;;;;27.73;25.95;;;;;;;13.27;74.13;100025.72;5001179;28;103077;-52
2022/11/18 18:16:44;;;;;;;25.30;23.63;;;;;;;13.26;74.23;100029.56;4999618;28;102879;-52
2022/11/18 18:19:15;;;;;;;25.73;24.08;;;;;;;13.27;74.36;100036.66;5001261;28;103979;-52
2022/11/18 18:21:42;;;;;;;22.98;21.58;;;;;;;13.26;74.25;100029.56;5001767;28;102225;-52
2022/11/18 18:24:10;;;;;;;22.02;20.60;;;;;;;13.28;74.13;100025.44;5000878;28;102132;-52
2022/11/18 18:26:39;;;;;;;25.40;23.90;;;;;;;13.26;74.16;100022.19;5006308;28;102241;-52
2022/11/18 18:29:07;;;;;;;25.93;24.13;;;;;;;13.26;74.23;100021.38;5001615;28;103950;-52
2022/11/18 18:31:35;;;;;;;24.13;22.47;;;;;;;13.29;74.38;100039.91;5001995;28;102282;-52
2022/11/18 18:34:03;;;;;;;24.87;23.20;;;;;;;13.29;74.39;100031.69;5008540;28;102382;-52
2022/11/18 18:36:32;;;;;;;24.65;23.05;;;;;;;13.28;74.37;100033.63;4999307;28;102611;-52
2022/11/18 18:39:00;;;;;;;26.92;25.10;;;;;;;13.27;74.36;100034.75;5001689;28;104078;-52
2022/11/18 18:41:28;;;;;;;27.38;25.63;;;;;;;13.29;74.45;100039.91;5002384;28;102833;-52
2022/11/18 18:43:55;;;;;;;25.88;24.10;;;;;;;13.29;74.37;100037.16;5003203;28;102216;-52
2022/11/18 18:46:27;;;;;;;25.48;23.83;;;;;;;13.28;74.46;100035.56;5000373;28;102976;-52
2022/11/18 18:48:56;;;;;;;26.38;24.67;;;;;;;13.30;74.40;100041.50;5002885;28;104132;-52
2022/11/18 18:51:22;;;;;;;29.53;27.53;;;;;;;13.29;74.51;100034.44;5003083;28;102495;-52
2022/11/18 18:53:53;;;;;;;26.63;24.92;;;;;;;13.28;74.39;100030.09;5001756;28;102187;-52
2022/11/18 18:56:20;;;;;;;26.35;24.45;;;;;;;13.30;74.61;100027.84;5000603;28;102730;-52
2022/11/18 18:58:46;;;;;;;25.90;24.05;;;;;;;13.29;74.56;100026.22;4998845;28;103969;-52
2022/11/18 19:01:19;;;;;;;26.83;25.13;;;;;;;13.28;74.51;100022.69;4999191;28;102106;-52
2022/11/18 19:03:53;;;;;;;29.10;27.13;;;;;;;13.29;74.52;100026.22;4999152;28;102611;-52
2022/11/18 19:06:21;;;;;;;25.80;23.98;;;;;;;13.29;74.55;100023.50;4999875;28;102399;-52
2022/11/18 19:08:52;;;;;;;;;;;;;;;13.29;74.70;100013.38;4997958;28;104555;-52
2022/11/18 19:14:06;;;;;;;26.08;24.17;;;;;;;13.28;74.59;100009.03;5011224;28;102511;-52
2022/11/18 19:16:36;;;;;;;27.63;25.55;;;;;;;13.29;74.63;100012.56;5011037;28;102348;-53
2022/11/18 19:19:04;;;;;;;26.92;25.05;;;;;;;13.28;74.49;99995.38;4996476;28;104037;-53
2022/11/18 19:21:34;;;;;;;26.38;24.17;;;;;;;13.28;74.59;99989.09;5000171;28;102104;-52
2022/11/18 19:24:01;;;;;;;25.40;23.40;;;;;;;13.28;74.70;99983.63;4998589;28;102173;-52
2022/11/18 19:26:28;;;;;;;28.98;26.55;;;;;;;13.27;74.74;99980.09;4999622;28;103867;-52
2022/11/18 19:28:56;;;;;;;27.38;25.45;;;;;;;13.27;74.76;99971.06;5008128;28;104090;-52
2022/11/18 19:31:22;;;;;;;29.55;27.27;;;;;;;13.28;74.67;99967.25;5017351;28;102156;-52
2022/11/18 19:33:51;;;;;;;26.98;25.08;;;;;;;13.29;74.93;99968.84;5007925;28;102152;-52
2022/11/18 19:36:19;;;;;;;28.63;26.52;;;;;;;13.29;74.80;99949.72;5007358;28;102103;-52
2022/11/18 19:38:48;;;;;;;29.27;27.05;;;;;;;13.27;74.91;99960.97;5006998;28;103927;-52
2022/11/18 19:41:15;;;;;;;29.92;27.75;;;;;;;13.26;74.75;99950.34;4998775;28;102220;-52
2022/11/18 19:43:41;;;;;;;25.40;23.35;;;;;;;13.26;74.99;99951.13;5006946;28;102077;-52
2022/11/18 19:46:08;;;;;;;28.27;26.17;;;;;;;13.27;75.09;99938.28;4999931;28;102322;-52
2022/11/18 19:48:41;;;;;;;28.73;26.33;;;;;;;13.28;75.01;99945.38;5004740;28;102946;-52
2022/11/18 19:51:10;;;;;;;28.85;26.52;;;;;;;13.27;74.98;99932.81;5010560;28;102440;-52
2022/11/18 19:53:47;;;;;;;28.95;26.83;;;;;;;13.28;75.13;99931.72;5000373;28;102437;-52
2022/11/18 19:56:18;;;;;;;29.92;27.63;;;;;;;13.27;75.15;99932.81;4999289;28;102541;-52
2022/11/18 19:58:49;;;;;;;28.05;25.85;;;;;;;13.26;75.13;99932.00;4997857;28;104006;-52
2022/11/18 20:01:18;;;;;;;28.38;26.20;;;;;;;13.27;74.99;99921.88;5005630;28;102477;-52
2022/11/18 20:03:46;;;;;;;28.90;26.60;;;;;;;13.28;75.01;99910.66;4999923;28;102656;-52
2022/11/18 20:06:15;;;;;;;27.52;25.23;;;;;;;13.30;74.99;99902.13;5004294;28;102275;-52
2022/11/18 20:08:49;;;;;;;28.50;26.42;;;;;;;13.29;75.02;99908.72;4997757;28;104192;-52
2022/11/18 20:11:19;;;;;;;30.02;27.73;;;;;;;13.28;75.14;99907.13;4997580;28;101897;-52
2022/11/18 20:13:45;;;;;;;29.00;26.77;;;;;;;13.28;75.14;99907.94;4998079;28;102269;-52
2022/11/18 20:16:14;;;;;;;30.52;28.20;;;;;;;13.27;75.15;99905.50;5011137;28;102325;-52
2022/11/18 20:18:44;;;;;;;28.55;26.20;;;;;;;13.28;75.26;99901.66;5017052;28;104344;-52
2022/11/18 20:21:18;;;;;;;28.08;25.80;;;;;;;13.30;75.38;99893.94;5017439;28;102626;-52
2022/11/18 20:23:50;;;;;;;27.02;24.90;;;;;;;13.27;75.04;99884.47;5016866;28;102293;-52
2022/11/18 20:26:28;;;;;;;28.33;26.02;;;;;;;13.28;75.29;99877.88;5017870;28;102377;-52
2022/11/18 20:28:59;;;;;;;27.42;25.13;;;;;;;13.29;75.38;99881.41;5016400;28;103866;-52
2022/11/18 20:31:28;;;;;;;29.08;26.55;;;;;;;13.27;75.32;99873.53;5006089;28;102368;-52
2022/11/18 20:33:56;;;;;;;27.58;25.52;;;;;;;13.27;75.59;99872.69;4997864;28;102371;-52
2022/11/18 20:36:24;;;;;;;27.33;24.98;;;;;;;13.28;75.53;99874.34;5011672;28;102156;-52
2022/11/18 20:38:53;;;;;;;29.57;26.93;;;;;;;13.28;75.62;99858.75;5010425;28;103992;-52
2022/11/18 20:41:23;;;;;;;;;;;;;;;13.27;75.70;99857.13;5002725;28;102149;-52
2022/11/18 20:43:50;;;;;;;23.88;21.98;;;;;;;13.28;75.45;99857.94;5008906;28;102326;-52
2022/11/18 20:46:19;;;;;;;25.88;23.67;;;;;;;13.28;75.49;99853.28;5011441;28;102151;-52
2022/11/18 20:48:47;;;;;;;24.88;22.77;;;;;;;13.28;75.70;99849.75;5016459;28;104320;-52
2022/11/18 20:51:15;;;;;;;27.95;25.70;;;;;;;13.27;75.50;99853.56;5015131;28;102184;-52
2022/11/18 20:53:42;;;;;;;24.77;22.70;;;;;;;13.26;75.75;99849.22;5010819;28;102719;-52
2022/11/18 20:56:15;;;;;;;28.02;25.92;;;;;;;13.25;75.83;99851.16;5003734;28;102526;-52
2022/11/18 20:58:43;;;;;;;26.92;24.77;;;;;;;13.27;75.49;99845.38;5000623;28;103951;-52
2022/11/18 21:01:12;;;;;;;24.13;21.73;;;;;;;13.28;75.49;99841.53;5001650;28;102039;-52
2022/11/18 21:03:42;;;;;;;23.58;21.48;;;;;;;13.28;75.59;99844.28;5004036;28;102516;-52
2022/11/18 21:06:11;;;;;;;23.40;21.65;;;;;;;13.27;75.77;99828.97;5001152;28;102508;-52
2022/11/18 21:08:39;;;;;;;24.30;22.50;;;;;;;13.26;75.81;99832.84;5009332;28;103936;-52
2022/11/18 21:11:08;;;;;;;25.83;23.73;;;;;;;13.26;75.79;99832.84;4999826;28;101961;-52
2022/11/18 21:16:25;;;;;;;23.45;21.40;;;;;;;13.25;75.89;99829.31;5006017;28;102029;-52
2022/11/18 21:18:53;;;;;;;22.85;21.25;;;;;;;13.24;75.86;99835.91;5010184;28;103889;-52
2022/11/18 21:24:07;;;;;;;22.90;21.05;;;;;;;13.22;75.87;99817.03;5003655;28;102206;-52
2022/11/18 21:26:37;;;;;;;22.00;20.15;;;;;;;13.24;75.99;99802.31;5009206;28;102246;-52
2022/11/18 21:29:06;;;;;;;21.00;19.40;;;;;;;13.26;75.77;99794.59;5003149;28;104382;-52
2022/11/18 21:31:37;;;;;;;23.08;21.40;;;;;;;13.27;75.94;99779.78;5009351;28;102240;-52
2022/11/18 21:34:05;;;;;;;21.08;19.60;;;;;;;13.25;75.82;99782.06;5002235;28;103128;-52
2022/11/18 21:36:32;;;;;;;20.08;18.65;;;;;;;13.25;76.07;99771.13;5000262;28;102436;-52
2022/11/18 21:39:00;;;;;;;22.33;20.80;;;;;;;13.24;75.97;99758.59;5008527;28;103869;-52
2022/11/18 21:41:27;;;;;;;23.48;21.67;;;;;;;13.23;76.00;99755.00;4997522;28;102562;-53
2022/11/18 21:43:54;;;;;;;21.55;20.05;;;;;;;13.21;76.09;99749.06;4996775;28;102101;-52
2022/11/18 21:46:26;;;;;;;23.20;21.42;;;;;;;13.22;76.14;99737.78;5001414;28;102392;-52
2022/11/18 21:48:53;;;;;;;20.30;18.90;;;;;;;13.24;75.99;99732.06;4999193;28;103860;-52
2022/11/18 21:51:21;;;;;;;23.27;21.48;;;;;;;13.24;76.17;99731.25;5004895;28;102520;-52
2022/11/18 21:53:51;;;;;;;19.53;18.13;;;;;;;13.24;76.15;99736.72;5006795;28;102379;-52
2022/11/18 21:56:20;;;;;;;21.95;20.42;;;;;;;13.25;76.19;99732.88;5006565;28;102459;-52
2022/11/18 21:58:47;;;;;;;;;;;;;;;13.25;76.05;99711.00;5008012;28;104159;-52
2022/11/18 22:01:18;;;;;;;19.13;17.15;;;;;;;13.24;76.19;99712.13;5004959;28;102409;-52